createdAt,value
2022-11-30T07:28:29.652Z,9.20
2022-11-30T07:30:32.265Z,7.43
2022-11-30T07:32:34.702Z,8.68
2022-11-30T07:34:36.938Z,7.68
2022-11-30T07:36:39.430Z,8.20
2022-11-30T07:38:41.720Z,7.53
2022-11-30T07:40:43.898Z,7.20
2022-11-30T07:42:46.428Z,7.87
2022-11-30T07:44:53.811Z,9.38
2022-11-30T07:47:00.917Z,7.22
2022-11-30T07:49:04.273Z,7.05
2022-11-30T07:51:08.778Z,7.28
2022-11-30T07:53:10.993Z,8.23
2022-11-30T07:55:13.599Z,7.37
2022-11-30T07:57:16.009Z,6.93
2022-11-30T07:59:18.277Z,7.18
2022-11-30T08:01:22.685Z,7.20
2022-11-30T08:03:25.224Z,6.82
2022-11-30T08:05:27.686Z,6.95
2022-11-30T08:07:29.981Z,7.97
2022-11-30T08:09:32.714Z,6.32
2022-11-30T08:11:35.633Z,7.55
2022-11-30T08:13:38.647Z,7.62
2022-11-30T08:15:41.396Z,9.23
2022-11-30T08:33:09.791Z,7.43
2022-11-30T08:35:12.690Z,7.78
2022-11-30T08:37:14.931Z,7.53
2022-11-30T08:39:17.505Z,6.55
2022-11-30T08:41:22.000Z,6.68
2022-11-30T08:43:24.217Z,9.10
2022-11-30T08:45:26.448Z,7.75
2022-11-30T08:47:30.667Z,9.23
2022-11-30T08:49:33.118Z,8.68
2022-11-30T08:52:00.812Z,8.30
2022-11-30T08:53:58.269Z,7.60
2022-11-30T08:56:06.180Z,8.90
2022-11-30T08:58:08.766Z,8.73
2022-11-30T09:00:12.227Z,8.35
2022-11-30T09:02:19.727Z,8.10
2022-11-30T09:04:22.267Z,7.97
2022-11-30T09:06:27.505Z,6.82
2022-11-30T09:08:29.721Z,7.47
2022-11-30T09:10:31.908Z,7.30
2022-11-30T09:12:36.190Z,7.95
2022-11-30T09:14:38.428Z,8.52
2022-11-30T09:16:40.714Z,8.05
2022-11-30T09:18:44.167Z,7.20
2022-11-30T09:20:46.517Z,9.18
2022-11-30T09:22:48.702Z,17.85
2022-11-30T09:24:51.582Z,6.93
2022-11-30T09:26:57.483Z,7.70
2022-11-30T09:29:00.198Z,7.30
2022-11-30T09:31:17.360Z,6.90
2022-11-30T09:33:20.333Z,6.95
2022-11-30T09:35:22.532Z,7.15
2022-11-30T09:37:25.050Z,7.37
2022-11-30T09:39:27.241Z,7.40
2022-11-30T09:42:12.933Z,6.75
2022-11-30T09:44:27.591Z,6.87
2022-11-30T09:46:41.680Z,6.93
2022-11-30T09:49:24.918Z,8.38
2022-11-30T09:51:35.034Z,6.82
2022-11-30T09:53:46.951Z,6.37
2022-11-30T09:55:49.193Z,11.75
2022-11-30T09:57:55.445Z,7.00
2022-11-30T10:00:00.355Z,7.40
2022-11-30T10:02:25.576Z,7.80
2022-11-30T10:04:29.891Z,6.93
2022-11-30T10:06:46.180Z,7.53
2022-11-30T10:09:00.937Z,7.40
2022-11-30T10:11:30.341Z,7.72
2022-11-30T10:14:09.542Z,8.23
2022-11-30T10:16:38.358Z,7.57
2022-11-30T10:18:56.819Z,8.38
2022-11-30T10:21:15.592Z,8.30
2022-11-30T10:23:45.935Z,7.05
2022-11-30T10:25:58.448Z,6.65
2022-11-30T10:28:38.530Z,7.12
2022-11-30T10:30:35.344Z,7.32
2022-11-30T10:32:40.329Z,7.35
2022-11-30T10:34:45.439Z,8.18
2022-11-30T10:37:03.774Z,7.28
2022-11-30T10:39:19.000Z,17.20
2022-11-30T10:41:26.828Z,8.55
2022-11-30T10:43:30.987Z,7.70
2022-11-30T10:45:34.035Z,7.25
2022-11-30T10:47:43.443Z,7.62
2022-11-30T10:49:49.779Z,7.22
2022-11-30T10:51:56.159Z,7.10
2022-11-30T10:54:00.122Z,7.57
2022-11-30T10:56:12.220Z,7.75
2022-11-30T10:58:41.184Z,7.80
2022-11-30T11:00:55.523Z,7.05
2022-11-30T11:02:58.334Z,6.75
2022-11-30T11:05:28.348Z,7.45
2022-11-30T11:07:31.870Z,7.05
2022-11-30T11:09:40.596Z,6.22
2022-11-30T11:11:42.840Z,6.22
2022-11-30T11:13:45.292Z,7.20
2022-11-30T11:15:59.554Z,7.53
2022-11-30T11:18:26.205Z,6.40
2022-11-30T11:20:31.484Z,6.12
2022-11-30T11:22:35.595Z,7.03
2022-11-30T11:24:37.929Z,6.57
2022-11-30T11:26:50.602Z,5.93
2022-11-30T11:28:55.704Z,5.90
2022-11-30T11:30:58.507Z,7.35
2022-11-30T11:33:25.826Z,7.30
2022-11-30T11:35:42.639Z,8.43
2022-11-30T11:37:51.685Z,7.07
2022-11-30T11:39:57.027Z,10.18
2022-11-30T11:42:00.480Z,6.32
2022-11-30T11:44:04.756Z,9.38
2022-11-30T11:46:13.208Z,7.32
2022-11-30T11:48:39.033Z,6.15
2022-11-30T11:53:25.168Z,7.57
2022-11-30T11:55:27.896Z,10.80
2022-11-30T11:57:54.631Z,7.18
2022-11-30T12:00:05.505Z,6.78
2022-11-30T12:04:16.074Z,6.85
2022-11-30T12:06:19.596Z,7.12
2022-11-30T12:08:47.678Z,7.05
2022-11-30T12:10:56.622Z,6.80
2022-11-30T12:12:59.380Z,6.90
2022-11-30T12:15:03.398Z,6.57
2022-11-30T12:17:18.010Z,7.15
2022-11-30T12:19:23.343Z,6.68
2022-11-30T12:21:55.812Z,5.75
2022-11-30T12:24:20.329Z,6.72
2022-11-30T12:26:44.373Z,6.45
2022-11-30T12:29:18.577Z,5.50
2022-11-30T12:31:23.485Z,6.53
2022-11-30T12:33:50.220Z,7.40
2022-11-30T12:36:02.279Z,3.30
2022-11-30T12:38:25.806Z,4.35
2022-11-30T12:40:46.429Z,4.22
2022-11-30T12:43:13.855Z,3.55
2022-11-30T12:45:28.022Z,3.62
2022-11-30T12:48:05.480Z,7.15
2022-11-30T12:50:49.445Z,5.00
2022-11-30T12:53:16.836Z,4.80
2022-11-30T12:55:27.395Z,4.30
2022-11-30T12:57:39.029Z,4.05
2022-11-30T12:59:43.949Z,3.55
2022-11-30T13:02:01.398Z,4.15
2022-11-30T13:04:13.867Z,4.12
2022-11-30T13:06:23.220Z,3.60
2022-11-30T13:08:30.546Z,4.03
2022-11-30T13:10:40.880Z,3.70
2022-11-30T13:12:47.829Z,4.18
2022-11-30T13:14:56.162Z,4.80
2022-11-30T13:17:06.872Z,4.03
2022-11-30T13:19:21.031Z,3.90
2022-11-30T13:21:33.747Z,3.35
2022-11-30T13:23:45.806Z,3.92
2022-11-30T13:26:11.759Z,4.50
2022-11-30T13:28:33.125Z,3.47
2022-11-30T13:30:43.301Z,5.75
2022-11-30T13:33:00.801Z,4.10
2022-11-30T13:35:28.153Z,3.53
2022-11-30T13:37:31.104Z,3.10
2022-11-30T13:39:54.443Z,3.10
2022-11-30T13:42:02.937Z,3.53
2022-11-30T13:44:06.397Z,3.65
2022-11-30T13:46:18.990Z,4.35
2022-11-30T13:48:39.308Z,3.97
2022-11-30T13:50:41.634Z,3.85
2022-11-30T13:52:59.379Z,4.05
2022-11-30T13:55:33.734Z,3.50
2022-11-30T13:57:35.944Z,3.60
2022-11-30T13:59:45.913Z,4.28
2022-11-30T14:01:52.563Z,3.72
2022-11-30T14:04:15.808Z,9.05
2022-11-30T14:06:43.284Z,6.75
2022-11-30T14:08:45.944Z,4.20
2022-11-30T14:10:48.365Z,4.60
2022-11-30T14:13:03.335Z,6.03
2022-11-30T14:15:39.230Z,3.78
2022-11-30T14:17:41.859Z,4.20
2022-11-30T14:19:50.715Z,3.85
2022-11-30T14:21:52.982Z,4.07
2022-11-30T14:24:02.195Z,3.62
2022-11-30T14:26:15.095Z,3.55
2022-11-30T14:28:34.782Z,3.45
2022-11-30T14:30:40.422Z,7.32
2022-11-30T14:32:47.218Z,4.82
2022-11-30T14:34:52.300Z,4.87
2022-11-30T14:37:06.263Z,4.18
2022-11-30T14:39:37.704Z,5.70
2022-11-30T14:41:41.319Z,4.78
2022-11-30T14:44:11.233Z,4.05
2022-11-30T14:46:17.860Z,3.80
2022-11-30T14:48:20.279Z,4.03
2022-11-30T14:50:26.117Z,5.50
2022-11-30T14:52:40.433Z,4.35
2022-11-30T14:55:10.707Z,6.47
2022-11-30T14:57:21.751Z,4.30
2022-11-30T14:59:32.957Z,5.95
2022-11-30T15:01:35.637Z,4.47
2022-11-30T15:03:40.762Z,4.25
2022-11-30T15:05:43.901Z,3.90
2022-11-30T15:07:46.495Z,4.50
2022-11-30T15:09:55.969Z,4.37
2022-11-30T15:11:58.946Z,3.97
2022-11-30T15:14:09.859Z,3.95
2022-11-30T15:16:29.394Z,4.62
2022-11-30T15:18:31.686Z,3.67
2022-11-30T15:20:46.515Z,8.38
2022-11-30T15:22:49.620Z,4.60
2022-11-30T15:24:51.994Z,5.30
2022-11-30T15:27:10.257Z,21.70
2022-11-30T15:29:41.087Z,5.78
2022-11-30T15:31:48.850Z,4.00
2022-11-30T15:33:51.820Z,4.12
2022-11-30T15:36:18.840Z,4.72
2022-11-30T15:38:24.463Z,3.87
2022-11-30T15:40:33.888Z,3.90
2022-11-30T15:42:40.611Z,3.95
2022-11-30T15:44:47.341Z,3.90
2022-11-30T15:46:57.309Z,4.15
2022-11-30T15:49:15.947Z,6.43
2022-11-30T15:51:23.717Z,7.35
2022-11-30T15:53:49.761Z,6.80
2022-11-30T15:55:56.756Z,3.60
2022-11-30T15:58:00.478Z,3.37
2022-11-30T16:00:18.787Z,3.83
2022-11-30T16:02:28.392Z,4.80
2022-11-30T16:05:14.248Z,4.18
2022-11-30T16:07:18.526Z,3.85
2022-11-30T16:09:25.424Z,5.45
2022-11-30T16:11:27.838Z,4.93
2022-11-30T16:13:31.696Z,5.72
2022-11-30T16:15:36.559Z,8.40
2022-11-30T16:17:38.769Z,6.03
2022-11-30T16:19:40.955Z,6.87
2022-11-30T16:21:43.614Z,5.78
2022-11-30T16:23:47.231Z,5.03
2022-11-30T16:25:50.153Z,6.37
2022-11-30T16:27:52.998Z,5.53
2022-11-30T16:29:55.854Z,8.43
2022-11-30T16:31:59.343Z,8.77
2022-11-30T16:34:02.021Z,17.15
2022-11-30T16:36:08.389Z,6.78
2022-11-30T16:38:10.723Z,7.55
2022-11-30T16:40:15.120Z,6.62
2022-11-30T16:42:17.762Z,8.05
2022-11-30T16:44:20.321Z,8.75
2022-11-30T16:46:28.166Z,8.88
2022-11-30T16:48:31.179Z,9.02
2022-11-30T16:50:34.817Z,8.50
2022-11-30T16:52:38.048Z,10.75
2022-11-30T16:54:40.382Z,21.90
2022-11-30T16:56:43.480Z,9.75
2022-11-30T16:58:46.244Z,9.63
2022-11-30T17:00:48.937Z,9.02
2022-11-30T17:02:58.398Z,9.45
2022-11-30T17:05:01.015Z,9.35
2022-11-30T17:07:03.343Z,13.15
2022-11-30T17:09:06.114Z,9.07
2022-11-30T17:11:35.237Z,9.98
2022-11-30T17:13:38.250Z,8.73
2022-11-30T17:15:40.838Z,8.63
2022-11-30T17:17:43.703Z,9.20
2022-11-30T17:19:46.331Z,9.15
2022-11-30T17:21:51.256Z,8.27
2022-11-30T17:23:54.565Z,9.07
2022-11-30T17:25:57.007Z,9.93
2022-11-30T17:28:00.517Z,14.55
2022-11-30T17:30:04.998Z,11.15
2022-11-30T17:32:07.645Z,10.73
2022-11-30T17:34:09.938Z,11.07
2022-11-30T17:36:15.092Z,11.57
2022-11-30T17:38:18.011Z,9.20
2022-11-30T17:40:20.713Z,12.93
2022-11-30T17:42:23.337Z,10.32
2022-11-30T17:44:25.583Z,10.55
2022-11-30T17:46:28.607Z,9.98
2022-11-30T17:48:32.590Z,10.40
2022-11-30T17:50:37.715Z,11.80
2022-11-30T17:52:40.486Z,10.75
2022-11-30T17:54:44.222Z,9.95
2022-11-30T17:56:46.552Z,10.43
2022-11-30T17:58:49.647Z,11.57
2022-11-30T18:00:53.664Z,10.93
2022-11-30T18:02:56.771Z,10.85
2022-11-30T18:04:59.850Z,11.02
2022-11-30T18:07:02.537Z,10.73
2022-11-30T18:09:05.745Z,11.00
2022-11-30T18:11:14.036Z,11.07
2022-11-30T18:13:16.803Z,10.95
2022-11-30T18:15:19.698Z,12.85
2022-11-30T18:17:22.289Z,11.77
2022-11-30T18:19:24.769Z,11.25
2022-11-30T18:21:30.026Z,10.25
2022-11-30T18:23:35.538Z,11.35
2022-11-30T18:25:38.820Z,12.13
2022-11-30T18:27:43.988Z,10.95
2022-11-30T18:29:47.152Z,10.95
2022-11-30T18:31:51.328Z,12.98
2022-11-30T18:33:58.577Z,10.93
2022-11-30T18:36:02.567Z,10.45
2022-11-30T18:38:05.336Z,12.65
2022-11-30T18:40:08.300Z,11.38
2022-11-30T18:42:11.322Z,12.27
2022-11-30T18:44:14.157Z,10.95
2022-11-30T18:46:17.319Z,11.02
2022-11-30T18:48:21.442Z,11.60
2022-11-30T18:50:24.290Z,10.70
2022-11-30T18:52:27.678Z,12.55
2022-11-30T18:54:31.677Z,12.68
2022-11-30T18:56:37.470Z,13.00
2022-11-30T18:58:49.231Z,10.95
2022-11-30T19:00:52.010Z,10.60
2022-11-30T19:02:54.504Z,10.90
2022-11-30T19:04:57.598Z,11.07
2022-11-30T19:07:00.511Z,10.35
2022-11-30T19:09:08.530Z,11.02
2022-11-30T19:11:11.494Z,12.65
2022-11-30T19:13:14.172Z,12.32
2022-11-30T19:15:17.037Z,12.45
2022-11-30T19:17:20.208Z,11.25
2022-11-30T19:19:23.046Z,21.62
2022-11-30T19:21:28.014Z,14.18
2022-11-30T19:25:48.918Z,12.70
2022-11-30T19:27:51.285Z,11.68
2022-11-30T19:29:54.232Z,13.65
2022-11-30T19:31:57.907Z,11.02
2022-11-30T19:34:03.920Z,11.82
2022-11-30T19:36:23.556Z,12.13
2022-11-30T19:38:26.380Z,11.68
2022-11-30T19:40:30.741Z,12.32
2022-11-30T19:42:36.588Z,13.30
2022-11-30T19:44:41.266Z,12.98
2022-11-30T19:46:45.238Z,12.48
2022-11-30T19:48:48.432Z,12.13
2022-11-30T19:50:51.456Z,12.93
2022-11-30T19:52:54.206Z,12.45
2022-11-30T19:54:56.954Z,11.93
2022-11-30T19:56:59.691Z,12.45
2022-11-30T19:59:05.743Z,30.30
2022-11-30T20:01:13.299Z,12.05
2022-11-30T20:03:16.601Z,11.05
2022-11-30T20:05:19.128Z,12.45
2022-11-30T20:07:24.754Z,13.07
2022-11-30T20:09:27.560Z,12.93
2022-11-30T20:11:30.389Z,12.57
2022-11-30T20:13:32.981Z,12.75
2022-11-30T20:15:40.286Z,14.05
2022-11-30T20:17:44.149Z,12.43
2022-11-30T20:19:46.946Z,12.65
2022-11-30T20:21:50.040Z,15.57
2022-11-30T20:23:55.047Z,13.70
2022-11-30T20:25:57.792Z,13.38
2022-11-30T20:28:01.229Z,13.80
2022-11-30T20:30:04.773Z,16.23
2022-11-30T20:32:08.224Z,15.32
2022-11-30T20:34:11.442Z,13.57
2022-11-30T20:36:16.242Z,14.57
2022-11-30T20:38:24.093Z,15.15
2022-11-30T20:40:47.881Z,12.40
2022-11-30T20:42:52.159Z,11.57
2022-11-30T20:44:54.920Z,13.23
2022-11-30T20:46:57.598Z,14.60
2022-11-30T20:49:01.306Z,15.57
2022-11-30T20:51:30.301Z,13.38
2022-11-30T20:53:34.939Z,13.65
2022-11-30T20:55:37.378Z,13.68
2022-11-30T20:57:39.625Z,14.07
2022-11-30T20:59:43.054Z,13.55
2022-11-30T21:01:47.072Z,15.23
2022-11-30T21:03:49.765Z,15.48
2022-11-30T21:05:52.686Z,13.98
2022-11-30T21:07:58.208Z,17.12
2022-11-30T21:10:01.010Z,16.40
2022-11-30T21:12:03.674Z,15.43
2022-11-30T21:14:06.106Z,16.25
2022-11-30T21:16:08.696Z,15.65
2022-11-30T21:18:11.318Z,14.13
2022-11-30T21:20:13.899Z,15.07
2022-11-30T21:22:16.522Z,13.73
2022-11-30T21:24:19.473Z,14.20
2022-11-30T21:26:25.002Z,14.75
2022-11-30T21:28:28.045Z,17.17
2022-11-30T21:30:30.628Z,14.13
2022-11-30T21:32:33.250Z,15.63
2022-11-30T21:34:35.652Z,15.00
2022-11-30T21:36:38.873Z,14.20
2022-11-30T21:38:41.884Z,13.50
2022-11-30T21:40:53.971Z,13.30
2022-11-30T21:42:56.814Z,15.35
2022-11-30T21:44:59.096Z,12.88
2022-11-30T21:47:01.338Z,12.85
2022-11-30T21:49:05.103Z,11.60
2022-11-30T21:51:15.437Z,12.90
2022-11-30T21:53:17.661Z,12.95
2022-11-30T21:55:20.151Z,12.07
2022-11-30T21:57:22.849Z,12.93
2022-11-30T21:59:25.081Z,13.07
2022-11-30T22:01:30.762Z,13.02
2022-11-30T22:03:33.748Z,22.77
2022-11-30T22:05:36.075Z,13.95
2022-11-30T22:07:38.343Z,12.70
2022-11-30T22:09:40.869Z,14.85
2022-11-30T22:11:45.371Z,14.23
2022-11-30T22:13:52.615Z,13.43
2022-11-30T22:16:17.376Z,13.95
2022-11-30T22:18:19.659Z,12.68
2022-11-30T22:20:21.939Z,12.35
2022-11-30T22:22:24.362Z,12.30
2022-11-30T22:24:26.632Z,11.00
2022-11-30T22:26:32.082Z,10.15
2022-11-30T22:28:34.954Z,10.63
2022-11-30T22:30:37.166Z,10.88
2022-11-30T22:32:43.387Z,11.20
2022-11-30T22:34:46.984Z,11.50
2022-11-30T22:36:49.474Z,10.15
2022-11-30T22:38:56.584Z,11.40
2022-11-30T22:41:10.700Z,9.95
2022-11-30T22:43:12.980Z,11.02
2022-11-30T22:45:15.225Z,11.00
2022-11-30T22:47:18.380Z,12.80
2022-11-30T22:49:21.821Z,9.73
2022-11-30T22:51:26.455Z,10.63
2022-11-30T22:53:29.021Z,10.00
2022-11-30T22:55:31.948Z,13.23
2022-11-30T22:57:34.281Z,17.85
2022-11-30T22:59:36.737Z,11.25
2022-11-30T23:01:44.312Z,10.32
2022-11-30T23:03:48.326Z,9.77
2022-11-30T23:05:50.864Z,9.65
2022-11-30T23:07:53.137Z,9.27
2022-11-30T23:09:57.241Z,9.50
2022-11-30T23:11:59.706Z,9.40
2022-11-30T23:14:05.976Z,10.52
2022-11-30T23:16:09.967Z,8.50
2022-11-30T23:18:12.554Z,9.55
2022-11-30T23:20:14.830Z,9.00
2022-11-30T23:22:17.163Z,10.30
2022-11-30T23:24:23.912Z,8.10
2022-11-30T23:26:37.960Z,8.80
2022-11-30T23:28:41.675Z,8.90
2022-11-30T23:30:44.231Z,13.43
2022-11-30T23:32:46.463Z,9.80
2022-11-30T23:34:50.769Z,9.13
2022-11-30T23:36:53.583Z,8.48
2022-11-30T23:39:02.922Z,8.82
2022-11-30T23:41:07.440Z,9.82
2022-11-30T23:43:09.919Z,9.38
2022-11-30T23:45:12.607Z,9.15
2022-11-30T23:47:18.278Z,9.23
2022-11-30T23:49:21.089Z,8.25
